sensor_id;sensor_type;location;lat;lon;timestamp;temperature;humidity
41294;DHT22;27037;52.010;4.446;2023-10-09T00:02:06;16.00;99.90
41294;DHT22;27037;52.010;4.446;2023-10-09T00:04:36;16.10;99.90
41294;DHT22;27037;52.010;4.446;2023-10-09T00:07:03;16.20;99.90
41294;DHT22;27037;52.010;4.446;2023-10-09T00:09:29;16.20;99.90
41294;DHT22;27037;52.010;4.446;2023-10-09T00:11:59;16.20;99.90
41294;DHT22;27037;52.010;4.446;2023-10-09T00:14:30;16.30;99.90
41294;DHT22;27037;52.010;4.446;2023-10-09T00:16:58;16.30;99.90
41294;DHT22;27037;52.010;4.446;2023-10-09T00:19:47;16.30;99.90
41294;DHT22;27037;52.010;4.446;2023-10-09T00:22:17;16.40;99.90
41294;DHT22;27037;52.010;4.446;2023-10-09T00:24:53;16.40;99.90
41294;DHT22;27037;52.010;4.446;2023-10-09T00:27:38;16.40;99.90
41294;DHT22;27037;52.010;4.446;2023-10-09T00:30:15;16.40;99.90
41294;DHT22;27037;52.010;4.446;2023-10-09T00:32:45;16.40;99.90
41294;DHT22;27037;52.010;4.446;2023-10-09T00:35:36;16.50;99.90
41294;DHT22;27037;52.010;4.446;2023-10-09T00:38:03;16.50;99.90
41294;DHT22;27037;52.010;4.446;2023-10-09T00:40:40;16.50;99.90
41294;DHT22;27037;52.010;4.446;2023-10-09T00:43:15;16.50;99.90
41294;DHT22;27037;52.010;4.446;2023-10-09T00:45:43;16.50;99.90
41294;DHT22;27037;52.010;4.446;2023-10-09T00:48:10;16.60;99.90
41294;DHT22;27037;52.010;4.446;2023-10-09T00:50:39;16.60;99.90
41294;DHT22;27037;52.010;4.446;2023-10-09T00:53:12;16.60;99.90
41294;DHT22;27037;52.010;4.446;2023-10-09T00:55:43;16.60;99.90
41294;DHT22;27037;52.010;4.446;2023-10-09T00:58:21;16.50;99.90
41294;DHT22;27037;52.010;4.446;2023-10-09T01:00:49;16.60;99.90
41294;DHT22;27037;52.010;4.446;2023-10-09T01:03:18;16.60;99.90
41294;DHT22;27037;52.010;4.446;2023-10-09T01:05:50;16.60;99.90
41294;DHT22;27037;52.010;4.446;2023-10-09T01:08:22;16.60;99.90
41294;DHT22;27037;52.010;4.446;2023-10-09T01:11:12;16.60;99.90
41294;DHT22;27037;52.010;4.446;2023-10-09T01:13:55;16.60;99.90
41294;DHT22;27037;52.010;4.446;2023-10-09T01:16:36;16.60;99.90
41294;DHT22;27037;52.010;4.446;2023-10-09T01:19:02;16.60;99.90
41294;DHT22;27037;52.010;4.446;2023-10-09T01:21:38;16.70;99.90
41294;DHT22;27037;52.010;4.446;2023-10-09T01:24:05;16.60;99.90
41294;DHT22;27037;52.010;4.446;2023-10-09T01:26:39;16.70;99.90
41294;DHT22;27037;52.010;4.446;2023-10-09T01:29:05;16.70;99.90
41294;DHT22;27037;52.010;4.446;2023-10-09T01:31:36;16.70;99.90
41294;DHT22;27037;52.010;4.446;2023-10-09T01:34:04;16.70;99.90
41294;DHT22;27037;52.010;4.446;2023-10-09T01:36:36;16.70;99.90
41294;DHT22;27037;52.010;4.446;2023-10-09T01:39:04;16.70;99.90
41294;DHT22;27037;52.010;4.446;2023-10-09T01:41:36;16.70;99.90
41294;DHT22;27037;52.010;4.446;2023-10-09T01:44:11;16.70;99.90
41294;DHT22;27037;52.010;4.446;2023-10-09T01:46:38;16.70;99.90
41294;DHT22;27037;52.010;4.446;2023-10-09T01:49:04;16.70;99.90
41294;DHT22;27037;52.010;4.446;2023-10-09T01:51:36;16.70;99.90
41294;DHT22;27037;52.010;4.446;2023-10-09T01:54:04;16.70;99.90
41294;DHT22;27037;52.010;4.446;2023-10-09T01:56:29;16.70;99.90
41294;DHT22;27037;52.010;4.446;2023-10-09T01:58:55;16.80;99.90
41294;DHT22;27037;52.010;4.446;2023-10-09T02:01:23;16.70;99.90
41294;DHT22;27037;52.010;4.446;2023-10-09T02:03:49;16.70;99.90
41294;DHT22;27037;52.010;4.446;2023-10-09T02:06:17;16.70;99.90
41294;DHT22;27037;52.010;4.446;2023-10-09T02:08:53;16.70;99.90
41294;DHT22;27037;52.010;4.446;2023-10-09T02:11:19;16.70;99.90
41294;DHT22;27037;52.010;4.446;2023-10-09T02:13:52;16.70;99.90
41294;DHT22;27037;52.010;4.446;2023-10-09T02:16:26;16.70;99.90
41294;DHT22;27037;52.010;4.446;2023-10-09T02:18:55;16.70;99.90
41294;DHT22;27037;52.010;4.446;2023-10-09T02:21:24;16.70;99.90
41294;DHT22;27037;52.010;4.446;2023-10-09T02:24:01;16.70;99.90
41294;DHT22;27037;52.010;4.446;2023-10-09T02:26:33;16.70;99.90
41294;DHT22;27037;52.010;4.446;2023-10-09T02:29:25;16.70;99.90
41294;DHT22;27037;52.010;4.446;2023-10-09T02:31:52;16.70;99.90
41294;DHT22;27037;52.010;4.446;2023-10-09T02:34:18;16.70;99.90
41294;DHT22;27037;52.010;4.446;2023-10-09T02:36:53;16.70;99.90
41294;DHT22;27037;52.010;4.446;2023-10-09T02:39:31;16.70;99.90
41294;DHT22;27037;52.010;4.446;2023-10-09T02:42:02;16.70;99.90
41294;DHT22;27037;52.010;4.446;2023-10-09T02:44:40;16.70;99.90
41294;DHT22;27037;52.010;4.446;2023-10-09T02:47:14;16.70;99.90
41294;DHT22;27037;52.010;4.446;2023-10-09T02:49:50;16.70;99.90
41294;DHT22;27037;52.010;4.446;2023-10-09T02:52:16;16.70;99.90
41294;DHT22;27037;52.010;4.446;2023-10-09T02:54:51;16.80;99.90
41294;DHT22;27037;52.010;4.446;2023-10-09T02:57:27;16.80;99.90
41294;DHT22;27037;52.010;4.446;2023-10-09T03:00:11;16.80;99.90
41294;DHT22;27037;52.010;4.446;2023-10-09T03:02:44;16.80;99.90
41294;DHT22;27037;52.010;4.446;2023-10-09T03:05:14;16.90;99.90
41294;DHT22;27037;52.010;4.446;2023-10-09T03:07:40;16.90;99.90
41294;DHT22;27037;52.010;4.446;2023-10-09T03:10:06;16.90;99.90
41294;DHT22;27037;52.010;4.446;2023-10-09T03:12:35;16.90;99.90
41294;DHT22;27037;52.010;4.446;2023-10-09T03:15:01;16.90;99.90
41294;DHT22;27037;52.010;4.446;2023-10-09T03:17:28;16.90;99.90
41294;DHT22;27037;52.010;4.446;2023-10-09T03:19:53;16.90;99.90
41294;DHT22;27037;52.010;4.446;2023-10-09T03:22:20;16.90;99.90
41294;DHT22;27037;52.010;4.446;2023-10-09T03:24:45;16.90;99.90
41294;DHT22;27037;52.010;4.446;2023-10-09T03:27:12;17.00;99.90
41294;DHT22;27037;52.010;4.446;2023-10-09T03:29:39;17.00;99.90
41294;DHT22;27037;52.010;4.446;2023-10-09T03:32:05;17.00;99.90
41294;DHT22;27037;52.010;4.446;2023-10-09T03:34:32;17.00;99.90
41294;DHT22;27037;52.010;4.446;2023-10-09T03:36:58;17.00;99.90
41294;DHT22;27037;52.010;4.446;2023-10-09T03:39:32;17.00;99.90
41294;DHT22;27037;52.010;4.446;2023-10-09T03:42:06;17.00;99.90
41294;DHT22;27037;52.010;4.446;2023-10-09T03:44:37;17.00;99.90
41294;DHT22;27037;52.010;4.446;2023-10-09T03:47:07;17.00;99.90
41294;DHT22;27037;52.010;4.446;2023-10-09T03:49:36;17.00;99.90
41294;DHT22;27037;52.010;4.446;2023-10-09T03:52:04;17.00;99.90
41294;DHT22;27037;52.010;4.446;2023-10-09T03:54:32;17.00;99.90
41294;DHT22;27037;52.010;4.446;2023-10-09T03:57:00;17.00;99.90
41294;DHT22;27037;52.010;4.446;2023-10-09T03:59:26;17.10;99.90
41294;DHT22;27037;52.010;4.446;2023-10-09T04:01:56;17.10;99.90
41294;DHT22;27037;52.010;4.446;2023-10-09T04:04:24;17.10;99.90
41294;DHT22;27037;52.010;4.446;2023-10-09T04:06:50;17.20;99.90
41294;DHT22;27037;52.010;4.446;2023-10-09T04:09:19;17.20;99.90
41294;DHT22;27037;52.010;4.446;2023-10-09T04:11:46;17.30;99.90
41294;DHT22;27037;52.010;4.446;2023-10-09T04:14:14;17.30;99.90
41294;DHT22;27037;52.010;4.446;2023-10-09T04:16:59;17.40;99.90
41294;DHT22;27037;52.010;4.446;2023-10-09T04:19:43;17.40;99.90
41294;DHT22;27037;52.010;4.446;2023-10-09T04:22:37;17.50;99.90
41294;DHT22;27037;52.010;4.446;2023-10-09T04:25:19;17.50;99.90
41294;DHT22;27037;52.010;4.446;2023-10-09T04:27:55;17.50;99.90
41294;DHT22;27037;52.010;4.446;2023-10-09T04:30:39;17.50;99.90
41294;DHT22;27037;52.010;4.446;2023-10-09T04:33:34;17.60;99.90
41294;DHT22;27037;52.010;4.446;2023-10-09T04:36:09;17.60;99.90
41294;DHT22;27037;52.010;4.446;2023-10-09T04:39:01;17.60;99.90
41294;DHT22;27037;52.010;4.446;2023-10-09T04:41:27;17.60;99.90
41294;DHT22;27037;52.010;4.446;2023-10-09T04:44:19;17.60;99.90
41294;DHT22;27037;52.010;4.446;2023-10-09T04:46:48;17.60;99.90
41294;DHT22;27037;52.010;4.446;2023-10-09T04:49:33;17.60;99.90
41294;DHT22;27037;52.010;4.446;2023-10-09T04:52:27;17.60;99.90
41294;DHT22;27037;52.010;4.446;2023-10-09T04:54:58;17.60;99.90
41294;DHT22;27037;52.010;4.446;2023-10-09T04:57:30;17.60;99.90
41294;DHT22;27037;52.010;4.446;2023-10-09T05:00:04;17.60;99.90
41294;DHT22;27037;52.010;4.446;2023-10-09T05:02:32;17.60;99.90
41294;DHT22;27037;52.010;4.446;2023-10-09T05:05:02;17.60;99.90
41294;DHT22;27037;52.010;4.446;2023-10-09T05:08:03;17.60;99.90
41294;DHT22;27037;52.010;4.446;2023-10-09T05:11:02;17.60;99.90
41294;DHT22;27037;52.010;4.446;2023-10-09T05:13:29;17.60;99.90
41294;DHT22;27037;52.010;4.446;2023-10-09T05:16:22;17.70;99.90
41294;DHT22;27037;52.010;4.446;2023-10-09T05:18:49;17.70;99.90
41294;DHT22;27037;52.010;4.446;2023-10-09T05:21:52;17.70;99.90
41294;DHT22;27037;52.010;4.446;2023-10-09T05:24:18;17.70;99.90
41294;DHT22;27037;52.010;4.446;2023-10-09T05:26:48;17.70;99.90
41294;DHT22;27037;52.010;4.446;2023-10-09T05:32:02;17.80;99.90
41294;DHT22;27037;52.010;4.446;2023-10-09T05:34:34;17.80;99.90
41294;DHT22;27037;52.010;4.446;2023-10-09T05:37:03;17.80;99.90
41294;DHT22;27037;52.010;4.446;2023-10-09T05:39:48;17.80;99.90
41294;DHT22;27037;52.010;4.446;2023-10-09T05:42:29;17.80;99.90
41294;DHT22;27037;52.010;4.446;2023-10-09T05:45:14;17.80;99.90
41294;DHT22;27037;52.010;4.446;2023-10-09T05:47:50;17.80;99.90
41294;DHT22;27037;52.010;4.446;2023-10-09T05:50:26;17.80;99.90
41294;DHT22;27037;52.010;4.446;2023-10-09T05:52:56;17.80;99.90
41294;DHT22;27037;52.010;4.446;2023-10-09T05:55:23;17.80;99.90
41294;DHT22;27037;52.010;4.446;2023-10-09T05:58:15;17.80;99.90
41294;DHT22;27037;52.010;4.446;2023-10-09T06:01:00;17.80;99.90
41294;DHT22;27037;52.010;4.446;2023-10-09T06:03:31;17.80;99.90
41294;DHT22;27037;52.010;4.446;2023-10-09T06:06:20;17.80;99.90
41294;DHT22;27037;52.010;4.446;2023-10-09T06:09:06;17.70;99.90
41294;DHT22;27037;52.010;4.446;2023-10-09T06:11:42;17.70;99.90
41294;DHT22;27037;52.010;4.446;2023-10-09T06:14:16;17.70;99.90
41294;DHT22;27037;52.010;4.446;2023-10-09T06:16:51;17.70;99.90
41294;DHT22;27037;52.010;4.446;2023-10-09T06:19:24;17.70;99.90
41294;DHT22;27037;52.010;4.446;2023-10-09T06:21:59;17.60;99.90
41294;DHT22;27037;52.010;4.446;2023-10-09T06:24:37;17.70;99.90
41294;DHT22;27037;52.010;4.446;2023-10-09T06:27:03;17.60;99.90
41294;DHT22;27037;52.010;4.446;2023-10-09T06:29:31;17.60;99.90
41294;DHT22;27037;52.010;4.446;2023-10-09T06:32:09;17.70;99.90
41294;DHT22;27037;52.010;4.446;2023-10-09T06:37:20;17.60;99.90
41294;DHT22;27037;52.010;4.446;2023-10-09T06:39:55;17.70;99.90
41294;DHT22;27037;52.010;4.446;2023-10-09T06:42:27;17.70;99.90
41294;DHT22;27037;52.010;4.446;2023-10-09T06:45:10;17.70;99.90
41294;DHT22;27037;52.010;4.446;2023-10-09T06:47:35;17.70;99.90
41294;DHT22;27037;52.010;4.446;2023-10-09T06:50:09;17.70;99.90
41294;DHT22;27037;52.010;4.446;2023-10-09T06:52:50;17.70;99.90
41294;DHT22;27037;52.010;4.446;2023-10-09T06:55:38;17.80;99.90
41294;DHT22;27037;52.010;4.446;2023-10-09T06:58:23;17.80;99.90
41294;DHT22;27037;52.010;4.446;2023-10-09T07:00:50;17.80;99.90
41294;DHT22;27037;52.010;4.446;2023-10-09T07:03:35;17.80;99.90
41294;DHT22;27037;52.010;4.446;2023-10-09T07:06:10;17.80;99.90
41294;DHT22;27037;52.010;4.446;2023-10-09T07:08:55;17.90;99.90
41294;DHT22;27037;52.010;4.446;2023-10-09T07:11:49;17.90;99.90
41294;DHT22;27037;52.010;4.446;2023-10-09T07:14:16;17.90;99.90
41294;DHT22;27037;52.010;4.446;2023-10-09T07:17:08;17.90;99.90
41294;DHT22;27037;52.010;4.446;2023-10-09T07:19:53;18.00;99.90
41294;DHT22;27037;52.010;4.446;2023-10-09T07:22:19;18.00;99.90
41294;DHT22;27037;52.010;4.446;2023-10-09T07:24:51;18.00;99.90
41294;DHT22;27037;52.010;4.446;2023-10-09T07:30:07;18.00;99.90
41294;DHT22;27037;52.010;4.446;2023-10-09T07:33:11;18.00;99.90
41294;DHT22;27037;52.010;4.446;2023-10-09T07:35:45;18.00;99.90
41294;DHT22;27037;52.010;4.446;2023-10-09T07:38:28;18.00;99.90
41294;DHT22;27037;52.010;4.446;2023-10-09T07:40:55;17.90;99.90
41294;DHT22;27037;52.010;4.446;2023-10-09T07:43:27;17.90;99.90
41294;DHT22;27037;52.010;4.446;2023-10-09T07:46:02;17.90;99.90
41294;DHT22;27037;52.010;4.446;2023-10-09T07:48:27;17.90;99.90
41294;DHT22;27037;52.010;4.446;2023-10-09T07:51:11;17.90;99.90
41294;DHT22;27037;52.010;4.446;2023-10-09T07:53:36;18.00;99.90
41294;DHT22;27037;52.010;4.446;2023-10-09T07:56:09;18.00;99.90
41294;DHT22;27037;52.010;4.446;2023-10-09T07:58:34;18.00;99.90
41294;DHT22;27037;52.010;4.446;2023-10-09T08:01:12;18.00;99.90
41294;DHT22;27037;52.010;4.446;2023-10-09T08:03:56;18.10;99.90
41294;DHT22;27037;52.010;4.446;2023-10-09T08:06:30;18.10;99.90
41294;DHT22;27037;52.010;4.446;2023-10-09T08:09:08;18.20;99.90
41294;DHT22;27037;52.010;4.446;2023-10-09T08:11:41;18.30;99.90
41294;DHT22;27037;52.010;4.446;2023-10-09T08:14:25;18.30;99.90
41294;DHT22;27037;52.010;4.446;2023-10-09T08:17:00;18.40;99.90
41294;DHT22;27037;52.010;4.446;2023-10-09T08:19:41;18.50;99.90
41294;DHT22;27037;52.010;4.446;2023-10-09T08:22:27;18.50;99.90
41294;DHT22;27037;52.010;4.446;2023-10-09T08:24:56;18.60;99.90
41294;DHT22;27037;52.010;4.446;2023-10-09T08:27:26;18.60;99.90
41294;DHT22;27037;52.010;4.446;2023-10-09T08:30:05;18.70;99.90
41294;DHT22;27037;52.010;4.446;2023-10-09T08:32:47;18.80;99.90
41294;DHT22;27037;52.010;4.446;2023-10-09T08:35:34;18.90;99.90
41294;DHT22;27037;52.010;4.446;2023-10-09T08:38:01;19.00;99.90
41294;DHT22;27037;52.010;4.446;2023-10-09T08:40:34;19.10;99.90
41294;DHT22;27037;52.010;4.446;2023-10-09T08:43:10;19.10;99.90
41294;DHT22;27037;52.010;4.446;2023-10-09T08:45:39;19.20;99.90
41294;DHT22;27037;52.010;4.446;2023-10-09T08:48:06;19.30;99.90
41294;DHT22;27037;52.010;4.446;2023-10-09T08:50:32;19.30;99.90
41294;DHT22;27037;52.010;4.446;2023-10-09T08:53:00;19.40;99.90
41294;DHT22;27037;52.010;4.446;2023-10-09T08:55:28;19.50;99.90
41294;DHT22;27037;52.010;4.446;2023-10-09T08:57:54;19.50;99.90
41294;DHT22;27037;52.010;4.446;2023-10-09T09:00:23;19.60;99.90
41294;DHT22;27037;52.010;4.446;2023-10-09T09:02:58;19.60;99.90
41294;DHT22;27037;52.010;4.446;2023-10-09T09:05:25;19.60;99.90
41294;DHT22;27037;52.010;4.446;2023-10-09T09:07:54;19.70;99.90
41294;DHT22;27037;52.010;4.446;2023-10-09T09:10:31;19.80;99.90
41294;DHT22;27037;52.010;4.446;2023-10-09T09:13:02;19.80;99.90
41294;DHT22;27037;52.010;4.446;2023-10-09T09:15:29;19.90;99.90
41294;DHT22;27037;52.010;4.446;2023-10-09T09:18:08;19.90;99.90
41294;DHT22;27037;52.010;4.446;2023-10-09T09:20:42;20.00;99.90
41294;DHT22;27037;52.010;4.446;2023-10-09T09:23:12;20.00;99.90
41294;DHT22;27037;52.010;4.446;2023-10-09T09:25:43;20.00;99.90
41294;DHT22;27037;52.010;4.446;2023-10-09T09:28:11;20.00;99.90
41294;DHT22;27037;52.010;4.446;2023-10-09T09:30:38;20.00;99.90
41294;DHT22;27037;52.010;4.446;2023-10-09T09:36:05;20.10;99.90
41294;DHT22;27037;52.010;4.446;2023-10-09T09:38:33;20.20;99.90
41294;DHT22;27037;52.010;4.446;2023-10-09T09:41:19;20.20;99.90
41294;DHT22;27037;52.010;4.446;2023-10-09T09:43:52;20.20;99.90
41294;DHT22;27037;52.010;4.446;2023-10-09T09:46:18;20.30;99.90
41294;DHT22;27037;52.010;4.446;2023-10-09T09:48:44;20.30;99.90
41294;DHT22;27037;52.010;4.446;2023-10-09T09:51:13;20.30;99.90
41294;DHT22;27037;52.010;4.446;2023-10-09T09:53:43;20.30;99.90
41294;DHT22;27037;52.010;4.446;2023-10-09T09:56:15;20.30;99.90
41294;DHT22;27037;52.010;4.446;2023-10-09T09:58:46;20.40;99.90
41294;DHT22;27037;52.010;4.446;2023-10-09T10:01:19;20.40;99.90
41294;DHT22;27037;52.010;4.446;2023-10-09T10:03:58;20.30;99.90
41294;DHT22;27037;52.010;4.446;2023-10-09T10:06:25;20.30;99.90
41294;DHT22;27037;52.010;4.446;2023-10-09T10:08:54;20.30;99.90
41294;DHT22;27037;52.010;4.446;2023-10-09T10:11:45;20.30;99.90
41294;DHT22;27037;52.010;4.446;2023-10-09T10:14:13;20.40;99.90
41294;DHT22;27037;52.010;4.446;2023-10-09T10:17:06;20.40;99.90
41294;DHT22;27037;52.010;4.446;2023-10-09T10:20:05;20.50;99.90
41294;DHT22;27037;52.010;4.446;2023-10-09T10:22:43;20.50;99.90
41294;DHT22;27037;52.010;4.446;2023-10-09T10:25:32;20.60;99.90
41294;DHT22;27037;52.010;4.446;2023-10-09T10:28:17;20.60;99.90
41294;DHT22;27037;52.010;4.446;2023-10-09T10:31:01;20.60;99.90
41294;DHT22;27037;52.010;4.446;2023-10-09T10:36:21;20.80;99.90
41294;DHT22;27037;52.010;4.446;2023-10-09T10:39:03;20.80;99.90
41294;DHT22;27037;52.010;4.446;2023-10-09T10:41:56;21.00;99.90
41294;DHT22;27037;52.010;4.446;2023-10-09T10:44:32;21.00;99.90
41294;DHT22;27037;52.010;4.446;2023-10-09T10:47:09;21.00;99.90
41294;DHT22;27037;52.010;4.446;2023-10-09T10:49:51;21.10;99.90
41294;DHT22;27037;52.010;4.446;2023-10-09T10:52:27;21.10;99.90
41294;DHT22;27037;52.010;4.446;2023-10-09T10:55:10;21.10;99.90
41294;DHT22;27037;52.010;4.446;2023-10-09T10:57:44;21.10;99.90
41294;DHT22;27037;52.010;4.446;2023-10-09T11:00:28;21.10;99.90
41294;DHT22;27037;52.010;4.446;2023-10-09T11:03:23;21.10;99.90
41294;DHT22;27037;52.010;4.446;2023-10-09T11:05:55;21.20;99.90
41294;DHT22;27037;52.010;4.446;2023-10-09T11:08:25;21.20;99.90
41294;DHT22;27037;52.010;4.446;2023-10-09T11:11:11;21.30;99.90
41294;DHT22;27037;52.010;4.446;2023-10-09T11:13:41;21.40;99.90
41294;DHT22;27037;52.010;4.446;2023-10-09T11:16:22;21.40;99.90
41294;DHT22;27037;52.010;4.446;2023-10-09T11:19:11;21.50;99.90
41294;DHT22;27037;52.010;4.446;2023-10-09T11:21:56;21.50;99.90
41294;DHT22;27037;52.010;4.446;2023-10-09T11:24:31;21.50;99.90
41294;DHT22;27037;52.010;4.446;2023-10-09T11:27:03;21.60;99.90
41294;DHT22;27037;52.010;4.446;2023-10-09T11:29:33;21.60;99.90
41294;DHT22;27037;52.010;4.446;2023-10-09T11:32:08;21.70;99.90
41294;DHT22;27037;52.010;4.446;2023-10-09T11:34:43;21.80;99.90
41294;DHT22;27037;52.010;4.446;2023-10-09T11:37:18;21.90;99.90
41294;DHT22;27037;52.010;4.446;2023-10-09T11:39:57;21.90;99.90
41294;DHT22;27037;52.010;4.446;2023-10-09T11:42:24;21.90;99.90
41294;DHT22;27037;52.010;4.446;2023-10-09T11:45:23;21.80;99.90
41294;DHT22;27037;52.010;4.446;2023-10-09T11:48:17;21.70;99.90
41294;DHT22;27037;52.010;4.446;2023-10-09T11:51:13;21.70;99.90
41294;DHT22;27037;52.010;4.446;2023-10-09T11:53:45;21.60;99.90
41294;DHT22;27037;52.010;4.446;2023-10-09T11:56:22;21.60;99.90
41294;DHT22;27037;52.010;4.446;2023-10-09T11:58:52;21.50;99.90
41294;DHT22;27037;52.010;4.446;2023-10-09T12:01:19;21.50;99.90
41294;DHT22;27037;52.010;4.446;2023-10-09T12:03:47;21.40;99.90
41294;DHT22;27037;52.010;4.446;2023-10-09T12:06:17;21.40;99.90
41294;DHT22;27037;52.010;4.446;2023-10-09T12:08:45;21.40;99.90
41294;DHT22;27037;52.010;4.446;2023-10-09T12:11:14;21.30;99.90
41294;DHT22;27037;52.010;4.446;2023-10-09T12:13:49;21.30;99.90
41294;DHT22;27037;52.010;4.446;2023-10-09T12:16:14;21.30;99.90
41294;DHT22;27037;52.010;4.446;2023-10-09T12:18:41;21.30;99.90
41294;DHT22;27037;52.010;4.446;2023-10-09T12:21:08;21.30;99.90
41294;DHT22;27037;52.010;4.446;2023-10-09T12:23:34;21.30;99.90
41294;DHT22;27037;52.010;4.446;2023-10-09T12:26:05;21.30;99.90
41294;DHT22;27037;52.010;4.446;2023-10-09T12:28:31;21.20;99.90
41294;DHT22;27037;52.010;4.446;2023-10-09T12:30:59;21.20;99.90
41294;DHT22;27037;52.010;4.446;2023-10-09T12:33:28;21.30;99.90
41294;DHT22;27037;52.010;4.446;2023-10-09T12:35:55;21.20;99.90
41294;DHT22;27037;52.010;4.446;2023-10-09T12:38:28;21.20;99.90
41294;DHT22;27037;52.010;4.446;2023-10-09T12:41:04;21.10;99.90
41294;DHT22;27037;52.010;4.446;2023-10-09T12:43:41;21.10;99.90
41294;DHT22;27037;52.010;4.446;2023-10-09T12:46:08;21.10;99.90
41294;DHT22;27037;52.010;4.446;2023-10-09T12:48:34;21.10;99.90
41294;DHT22;27037;52.010;4.446;2023-10-09T12:51:01;21.00;99.90
41294;DHT22;27037;52.010;4.446;2023-10-09T12:53:32;21.00;99.90
41294;DHT22;27037;52.010;4.446;2023-10-09T12:55:58;21.00;99.90
41294;DHT22;27037;52.010;4.446;2023-10-09T12:58:24;21.00;99.90
41294;DHT22;27037;52.010;4.446;2023-10-09T13:00:52;20.90;99.90
41294;DHT22;27037;52.010;4.446;2023-10-09T13:03:18;21.00;99.90
41294;DHT22;27037;52.010;4.446;2023-10-09T13:05:51;21.00;99.90
41294;DHT22;27037;52.010;4.446;2023-10-09T13:08:24;21.00;99.90
41294;DHT22;27037;52.010;4.446;2023-10-09T13:10:56;21.00;99.90
41294;DHT22;27037;52.010;4.446;2023-10-09T13:13:29;21.00;99.90
41294;DHT22;27037;52.010;4.446;2023-10-09T13:16:11;21.00;99.90
41294;DHT22;27037;52.010;4.446;2023-10-09T13:18:42;21.00;99.90
41294;DHT22;27037;52.010;4.446;2023-10-09T13:21:17;21.00;99.90
41294;DHT22;27037;52.010;4.446;2023-10-09T13:23:43;21.00;99.90
41294;DHT22;27037;52.010;4.446;2023-10-09T13:26:15;20.90;99.90
41294;DHT22;27037;52.010;4.446;2023-10-09T13:28:54;21.00;99.90
41294;DHT22;27037;52.010;4.446;2023-10-09T13:31:21;21.00;99.90
41294;DHT22;27037;52.010;4.446;2023-10-09T13:33:47;21.10;99.90
41294;DHT22;27037;52.010;4.446;2023-10-09T13:36:14;21.20;99.90
41294;DHT22;27037;52.010;4.446;2023-10-09T13:38:59;21.20;99.90
41294;DHT22;27037;52.010;4.446;2023-10-09T13:41:45;21.20;99.90
41294;DHT22;27037;52.010;4.446;2023-10-09T13:44:11;21.20;99.90
41294;DHT22;27037;52.010;4.446;2023-10-09T13:46:37;21.30;99.90
41294;DHT22;27037;52.010;4.446;2023-10-09T13:49:10;21.30;99.90
41294;DHT22;27037;52.010;4.446;2023-10-09T13:51:40;21.40;99.90
41294;DHT22;27037;52.010;4.446;2023-10-09T13:54:16;21.40;99.90
41294;DHT22;27037;52.010;4.446;2023-10-09T13:56:57;21.40;99.90
41294;DHT22;27037;52.010;4.446;2023-10-09T13:59:23;21.40;99.90
41294;DHT22;27037;52.010;4.446;2023-10-09T14:01:51;21.50;99.90
41294;DHT22;27037;52.010;4.446;2023-10-09T14:04:20;21.60;99.90
41294;DHT22;27037;52.010;4.446;2023-10-09T14:06:46;21.60;99.90
41294;DHT22;27037;52.010;4.446;2023-10-09T14:09:13;21.70;99.90
41294;DHT22;27037;52.010;4.446;2023-10-09T14:11:56;21.70;99.90
41294;DHT22;27037;52.010;4.446;2023-10-09T14:14:44;21.70;99.90
41294;DHT22;27037;52.010;4.446;2023-10-09T14:17:17;21.70;99.90
41294;DHT22;27037;52.010;4.446;2023-10-09T14:19:51;21.70;99.90
41294;DHT22;27037;52.010;4.446;2023-10-09T14:22:19;21.70;99.90
41294;DHT22;27037;52.010;4.446;2023-10-09T14:24:46;21.70;99.90
41294;DHT22;27037;52.010;4.446;2023-10-09T14:27:15;21.70;99.90
41294;DHT22;27037;52.010;4.446;2023-10-09T14:29:53;21.60;99.90
41294;DHT22;27037;52.010;4.446;2023-10-09T14:32:24;21.50;99.90
41294;DHT22;27037;52.010;4.446;2023-10-09T14:34:54;21.40;99.90
41294;DHT22;27037;52.010;4.446;2023-10-09T14:37:20;21.30;99.90
41294;DHT22;27037;52.010;4.446;2023-10-09T14:39:46;21.20;99.90
41294;DHT22;27037;52.010;4.446;2023-10-09T14:42:17;21.10;99.90
41294;DHT22;27037;52.010;4.446;2023-10-09T14:44:43;21.10;99.90
41294;DHT22;27037;52.010;4.446;2023-10-09T14:47:11;21.00;99.90
41294;DHT22;27037;52.010;4.446;2023-10-09T14:49:37;21.00;99.90
41294;DHT22;27037;52.010;4.446;2023-10-09T14:52:05;20.90;99.90
41294;DHT22;27037;52.010;4.446;2023-10-09T14:54:33;20.80;99.90
41294;DHT22;27037;52.010;4.446;2023-10-09T14:56:59;20.80;99.90
41294;DHT22;27037;52.010;4.446;2023-10-09T14:59:24;20.70;99.90
41294;DHT22;27037;52.010;4.446;2023-10-09T15:01:51;20.70;99.90
41294;DHT22;27037;52.010;4.446;2023-10-09T15:04:19;20.70;99.90
41294;DHT22;27037;52.010;4.446;2023-10-09T15:06:45;20.80;99.90
41294;DHT22;27037;52.010;4.446;2023-10-09T15:09:15;20.90;99.90
41294;DHT22;27037;52.010;4.446;2023-10-09T15:11:48;20.90;99.90
41294;DHT22;27037;52.010;4.446;2023-10-09T15:14:15;20.90;99.90
41294;DHT22;27037;52.010;4.446;2023-10-09T15:16:41;20.90;99.90
41294;DHT22;27037;52.010;4.446;2023-10-09T15:19:08;20.90;99.90
41294;DHT22;27037;52.010;4.446;2023-10-09T15:21:36;20.90;99.90
41294;DHT22;27037;52.010;4.446;2023-10-09T15:24:10;20.90;99.90
41294;DHT22;27037;52.010;4.446;2023-10-09T15:26:38;20.90;99.90
41294;DHT22;27037;52.010;4.446;2023-10-09T15:29:05;20.80;99.90
41294;DHT22;27037;52.010;4.446;2023-10-09T15:31:32;20.80;99.90
41294;DHT22;27037;52.010;4.446;2023-10-09T15:33:59;20.80;99.90
41294;DHT22;27037;52.010;4.446;2023-10-09T15:36:25;20.70;99.90
41294;DHT22;27037;52.010;4.446;2023-10-09T15:38:54;20.60;99.90
41294;DHT22;27037;52.010;4.446;2023-10-09T15:41:28;20.60;99.90
41294;DHT22;27037;52.010;4.446;2023-10-09T15:43:56;20.50;99.90
41294;DHT22;27037;52.010;4.446;2023-10-09T15:46:22;20.50;99.90
41294;DHT22;27037;52.010;4.446;2023-10-09T15:48:48;20.50;99.90
41294;DHT22;27037;52.010;4.446;2023-10-09T15:51:16;20.50;99.90
41294;DHT22;27037;52.010;4.446;2023-10-09T15:53:43;20.40;99.90
41294;DHT22;27037;52.010;4.446;2023-10-09T15:56:13;20.50;99.90
41294;DHT22;27037;52.010;4.446;2023-10-09T15:58:42;20.40;99.90
41294;DHT22;27037;52.010;4.446;2023-10-09T16:01:13;20.40;99.90
41294;DHT22;27037;52.010;4.446;2023-10-09T16:03:42;20.30;99.90
41294;DHT22;27037;52.010;4.446;2023-10-09T16:06:11;20.20;99.90
41294;DHT22;27037;52.010;4.446;2023-10-09T16:08:40;20.20;99.90
41294;DHT22;27037;52.010;4.446;2023-10-09T16:11:07;20.10;99.90
41294;DHT22;27037;52.010;4.446;2023-10-09T16:13:34;20.10;99.90
41294;DHT22;27037;52.010;4.446;2023-10-09T16:16:00;20.00;99.90
41294;DHT22;27037;52.010;4.446;2023-10-09T16:18:27;20.00;99.90
41294;DHT22;27037;52.010;4.446;2023-10-09T16:20:55;19.90;99.90
41294;DHT22;27037;52.010;4.446;2023-10-09T16:23:21;19.90;99.90